Time;durP1;ratioP1;P1;durP2;ratioP2;P2;SDS_P1;SDS_P2;PMS_P1;PMS_P2;Temp;Humidity;BMP_temperature;BMP_pressure;BME280_temperature;BME280_humidity;BME280_pressure;Samples;Min_cycle;Max_cycle;Signal;HPM_P1;HPM_P2
2022/05/09 00:02:08;;;;;;;5.30;2.10;;;;;;;5.21;92.50;102754.22;4978885;28;20538;-75
2022/05/09 00:04:45;;;;;;;6.65;2.17;;;;;;;5.14;92.91;102744.97;4992162;28;20038;-76
2022/05/09 00:07:17;;;;;;;10.00;2.08;;;;;;;5.20;93.41;102749.94;4994603;28;20056;-75
2022/05/09 00:10:04;;;;;;;10.10;2.33;;;;;;;5.18;93.48;102752.59;4989562;28;20056;-76
2022/05/09 00:12:36;;;;;;;3.90;2.00;;;;;;;5.23;92.33;102752.41;4990170;28;20073;-77
2022/05/09 00:26:57;;;;;;;6.43;2.23;;;;;;;5.31;93.13;102762.50;4990083;28;20093;-78
2022/05/09 00:29:41;;;;;;;6.10;1.70;;;;;;;5.21;93.04;102767.22;4981385;28;20088;-77
2022/05/09 00:39:38;;;;;;;11.40;2.58;;;;;;;4.99;96.02;102768.09;4982429;28;20043;-75
2022/05/09 00:42:27;;;;;;;6.93;2.10;;;;;;;4.91;95.64;102741.53;4931603;28;20463;-78
2022/05/09 00:44:52;;;;;;;7.90;2.25;;;;;;;4.89;96.63;102751.16;4984163;28;20117;-78
2022/05/09 00:47:20;;;;;;;7.45;2.17;;;;;;;4.84;96.19;102742.69;4984630;28;20038;-76
2022/05/09 00:49:57;;;;;;;7.95;2.22;;;;;;;4.78;97.42;102753.31;4961400;28;20503;-76
2022/05/09 00:52:43;;;;;;;7.03;2.20;;;;;;;4.79;96.64;102753.28;4972109;28;20045;-76
2022/05/09 00:55:40;;;;;;;5.35;1.90;;;;;;;4.73;97.20;102752.66;4963813;28;20141;-76
2022/05/09 00:58:46;;;;;;;13.77;2.63;;;;;;;4.75;97.14;102754.28;4968460;28;20053;-76
2022/05/09 01:01:13;;;;;;;;;;;;;;;4.73;97.98;102760.44;4879778;29;20047;-77
2022/05/09 01:03:43;;;;;;;6.43;2.88;;;;;;;4.71;98.16;102760.53;4957143;28;19921;-77
2022/05/09 01:06:10;;;;;;;8.15;2.25;;;;;;;4.72;99.06;102771.75;4952323;28;20134;-77
2022/05/09 01:08:36;;;;;;;7.13;2.40;;;;;;;4.77;98.25;102768.09;4978677;28;20045;-76
2022/05/09 01:11:04;;;;;;;9.32;2.45;;;;;;;4.73;98.30;102770.84;4970364;28;20039;-76
2022/05/09 01:13:36;;;;;;;10.57;2.67;;;;;;;4.68;99.01;102763.22;4961294;28;20057;-76
2022/05/09 01:16:03;;;;;;;5.53;2.15;;;;;;;4.60;99.67;102760.94;4952147;28;20042;-77
2022/05/09 01:18:29;;;;;;;7.50;2.40;;;;;;;4.58;100.00;102752.34;4966030;28;20046;-74
2022/05/09 01:20:55;;;;;;;11.15;2.50;;;;;;;4.52;100.00;102757.78;4981743;28;20034;-74
2022/05/09 01:23:20;;;;;;;10.80;2.50;;;;;;;4.51;100.00;102758.69;4947617;28;20104;-75
2022/05/09 01:25:46;;;;;;;7.53;2.45;;;;;;;4.48;100.00;102751.84;4952925;28;20667;-76
2022/05/09 01:28:12;;;;;;;9.93;2.50;;;;;;;4.54;100.00;102755.97;4977624;28;20510;-75
2022/05/09 01:30:47;;;;;;;5.95;2.30;;;;;;;4.42;100.00;102749.47;4977661;28;20399;-75
2022/05/09 01:33:35;;;;;;;6.93;2.20;;;;;;;4.46;100.00;102755.41;4981455;28;20057;-77
2022/05/09 01:36:15;;;;;;;10.40;2.33;;;;;;;4.45;100.00;102748.53;4949900;28;20042;-76
2022/05/09 01:38:46;;;;;;;7.10;2.25;;;;;;;4.41;100.00;102746.94;4969417;28;20034;-75
2022/05/09 01:41:12;;;;;;;8.30;2.92;;;;;;;4.35;100.00;102747.16;4976716;28;20123;-77
2022/05/09 01:43:38;;;;;;;8.65;2.60;;;;;;;4.36;100.00;102751.47;4980038;28;20072;-76
2022/05/09 01:46:11;;;;;;;11.40;2.95;;;;;;;4.37;100.00;102753.13;4984705;28;20042;-75
2022/05/09 01:51:22;;;;;;;10.82;2.72;;;;;;;4.32;100.00;102744.69;4988262;28;20039;-74
2022/05/09 01:53:50;;;;;;;7.25;2.85;;;;;;;4.27;100.00;102748.28;4974316;28;20546;-77
2022/05/09 01:56:38;;;;;;;6.82;2.40;;;;;;;4.24;100.00;102750.16;4972217;28;20050;-74
2022/05/09 01:59:13;;;;;;;13.43;2.92;;;;;;;4.26;100.00;102757.00;4942311;28;20046;-74
2022/05/09 02:01:46;;;;;;;9.77;3.30;;;;;;;4.32;100.00;102757.69;4972701;28;20038;-77
2022/05/09 02:04:12;;;;;;;11.55;3.10;;;;;;;4.33;100.00;102760.19;4985824;28;20049;-77
2022/05/09 02:06:39;;;;;;;11.43;2.70;;;;;;;4.25;100.00;102757.03;4970892;28;20140;-76
2022/05/09 02:09:08;;;;;;;10.52;2.65;;;;;;;4.20;100.00;102746.84;4981099;28;20089;-76
2022/05/09 02:11:34;;;;;;;7.90;2.92;;;;;;;4.21;100.00;102760.66;4971314;28;20040;-75
2022/05/09 02:14:00;;;;;;;9.25;2.70;;;;;;;4.14;100.00;102760.00;4954541;28;20042;-76
2022/05/09 02:16:26;;;;;;;9.80;2.70;;;;;;;4.19;100.00;102770.25;4983146;28;20042;-75
2022/05/09 02:18:51;;;;;;;8.27;2.58;;;;;;;4.18;100.00;102766.81;4988293;28;20037;-76
2022/05/09 02:21:17;;;;;;;12.90;3.03;;;;;;;4.17;100.00;102765.13;4990839;28;20555;-77
2022/05/09 02:23:43;;;;;;;17.80;3.80;;;;;;;4.12;100.00;102764.41;4973042;28;20092;-77
2022/05/09 02:26:09;;;;;;;11.20;2.90;;;;;;;4.05;100.00;102755.16;4969779;28;20092;-76
2022/05/09 02:28:35;;;;;;;13.93;2.90;;;;;;;4.01;100.00;102759.63;4963299;28;20077;-76
2022/05/09 02:31:01;;;;;;;12.13;2.75;;;;;;;4.00;100.00;102764.88;4975548;28;20131;-77
2022/05/09 02:33:26;;;;;;;14.45;3.00;;;;;;;3.99;100.00;102757.97;4954331;28;20389;-75
2022/05/09 02:35:52;;;;;;;11.85;2.70;;;;;;;3.95;100.00;102759.00;4972231;28;20106;-76
2022/05/09 02:38:19;;;;;;;13.10;3.33;;;;;;;3.96;100.00;102769.31;4970292;28;20126;-77
2022/05/09 02:40:46;;;;;;;11.98;3.22;;;;;;;3.88;100.00;102764.41;4971057;28;20038;-77
2022/05/09 02:43:12;;;;;;;13.88;3.10;;;;;;;3.92;100.00;102766.88;4985052;28;20509;-77
2022/05/09 02:45:38;;;;;;;10.00;3.28;;;;;;;3.88;100.00;102758.34;4974350;28;20622;-77
2022/05/09 02:48:05;;;;;;;12.65;3.17;;;;;;;3.82;100.00;102766.34;4959490;28;20046;-77
2022/05/09 02:50:34;;;;;;;9.40;2.83;;;;;;;3.83;100.00;102770.66;4976956;28;20102;-76
2022/05/09 02:53:08;;;;;;;9.38;2.60;;;;;;;3.77;100.00;102763.94;4956751;28;20052;-74
2022/05/09 02:55:37;;;;;;;16.00;3.15;;;;;;;3.69;100.00;102764.19;4956641;28;20037;-76
2022/05/09 02:58:07;;;;;;;12.50;3.10;;;;;;;3.63;100.00;102769.56;4965910;28;20042;-74
2022/05/09 03:00:34;;;;;;;11.00;2.78;;;;;;;3.64;100.00;102765.25;4971066;28;20045;-76
2022/05/09 03:05:46;;;;;;;8.35;2.47;;;;;;;3.77;100.00;102765.66;4981651;28;20034;-76
2022/05/09 03:08:14;;;;;;;11.27;3.13;;;;;;;3.68;100.00;102764.25;4985541;28;20037;-75
2022/05/09 03:10:39;;;;;;;10.93;3.20;;;;;;;3.65;100.00;102770.38;4967022;28;20039;-77
2022/05/09 03:13:08;;;;;;;11.48;3.30;;;;;;;3.62;100.00;102780.03;4975509;28;20069;-77
2022/05/09 03:15:38;;;;;;;12.75;3.80;;;;;;;3.59;100.00;102769.75;4978753;28;20464;-77
2022/05/09 03:18:04;;;;;;;12.07;3.58;;;;;;;3.59;100.00;102761.94;4985632;28;20045;-77
2022/05/09 03:20:30;;;;;;;10.50;4.03;;;;;;;3.58;100.00;102773.22;4961659;28;20042;-77
2022/05/09 03:22:57;;;;;;;14.52;3.60;;;;;;;3.49;100.00;102762.25;4986733;28;20034;-76
2022/05/09 03:25:23;;;;;;;13.63;3.92;;;;;;;3.48;100.00;102760.56;4955557;28;20507;-77
2022/05/09 03:27:49;;;;;;;13.93;3.92;;;;;;;3.60;100.00;102767.09;4985249;28;20432;-74
2022/05/09 03:30:17;;;;;;;11.52;4.05;;;;;;;3.61;100.00;102760.16;4988387;28;20042;-77
2022/05/09 03:32:44;;;;;;;11.52;4.18;;;;;;;3.56;100.00;102751.66;4970580;28;20041;-76
2022/05/09 03:35:10;;;;;;;11.93;4.40;;;;;;;3.50;100.00;102744.94;4987344;28;20035;-80
2022/05/09 03:37:37;;;;;;;13.95;4.70;;;;;;;3.54;100.00;102763.84;4980819;28;20045;-74
2022/05/09 03:40:04;;;;;;;13.55;4.47;;;;;;;3.41;100.00;102748.69;4964823;28;20102;-75
2022/05/09 03:42:30;;;;;;;13.13;4.45;;;;;;;3.43;100.00;102753.84;4969692;28;20053;-78
2022/05/09 03:44:56;;;;;;;10.02;3.90;;;;;;;3.43;100.00;102749.50;4986852;28;20491;-76
2022/05/09 03:47:21;;;;;;;15.25;4.35;;;;;;;3.38;100.00;102742.75;4951860;28;20038;-76
2022/05/09 03:49:47;;;;;;;13.45;3.67;;;;;;;3.47;100.00;102758.03;4959462;28;20050;-77
2022/05/09 03:52:12;;;;;;;15.95;4.05;;;;;;;3.50;100.00;102753.59;4971061;28;20054;-77
2022/05/09 03:54:38;;;;;;;14.63;4.22;;;;;;;3.50;100.00;102758.78;4980497;28;20038;-76
2022/05/09 03:57:04;;;;;;;17.80;4.00;;;;;;;3.49;100.00;102758.81;4983726;28;20045;-76
2022/05/09 03:59:32;;;;;;;13.95;3.60;;;;;;;3.55;100.00;102765.56;4965230;28;20085;-77
2022/05/09 04:01:58;;;;;;;14.60;3.47;;;;;;;3.55;100.00;102762.97;4979202;28;20038;-74
2022/05/09 04:04:25;;;;;;;12.30;3.67;;;;;;;3.62;100.00;102770.47;4974428;28;20031;-75
2022/05/09 04:06:53;;;;;;;10.35;3.55;;;;;;;3.62;100.00;102767.06;4956431;28;20041;-74
2022/05/09 04:09:19;;;;;;;10.00;3.85;;;;;;;3.64;100.00;102767.84;4971008;28;20037;-76
2022/05/09 04:11:47;;;;;;;16.23;4.60;;;;;;;3.62;100.00;102757.50;4985857;28;20037;-77
2022/05/09 04:14:13;;;;;;;13.13;3.90;;;;;;;3.65;100.00;102764.34;4982885;28;20561;-75
2022/05/09 04:16:51;;;;;;;16.67;4.22;;;;;;;3.66;100.00;102766.88;4987292;28;20035;-78
2022/05/09 04:19:17;;;;;;;10.63;3.83;;;;;;;3.75;100.00;102764.84;4980275;28;20116;-78
2022/05/09 04:21:43;;;;;;;13.50;4.13;;;;;;;3.83;100.00;102768.91;4968106;28;20034;-75
2022/05/09 04:24:09;;;;;;;17.08;4.25;;;;;;;3.90;100.00;102759.16;4967892;28;20045;-77
2022/05/09 04:26:34;;;;;;;15.00;4.03;;;;;;;3.98;100.00;102759.72;4970784;28;20045;-76
2022/05/09 04:29:01;;;;;;;13.95;3.70;;;;;;;4.05;100.00;102762.94;4969548;28;20073;-76
2022/05/09 04:31:28;;;;;;;12.80;4.13;;;;;;;4.09;100.00;102760.19;4979024;28;20034;-76
2022/05/09 04:33:55;;;;;;;14.00;3.88;;;;;;;4.17;100.00;102757.31;4978434;28;20035;-78
2022/05/09 04:36:21;;;;;;;15.30;3.75;;;;;;;4.30;100.00;102765.53;4964880;28;20132;-77
2022/05/09 04:38:50;;;;;;;20.23;4.10;;;;;;;4.39;100.00;102760.00;4956784;28;20169;-77
2022/05/09 04:41:18;;;;;;;13.60;3.45;;;;;;;4.53;100.00;102762.06;4980762;28;20034;-77
2022/05/09 04:43:44;;;;;;;10.90;3.50;;;;;;;4.60;100.00;102755.72;4981369;28;20034;-79
2022/05/09 04:46:11;;;;;;;15.93;3.88;;;;;;;4.77;100.00;102764.66;4985562;28;20034;-77
2022/05/09 04:48:40;;;;;;;15.05;4.00;;;;;;;4.91;100.00;102766.69;4979186;28;20145;-77
2022/05/09 04:51:06;;;;;;;16.83;4.30;;;;;;;5.12;100.00;102767.59;4963062;28;20042;-76
2022/05/09 04:53:32;;;;;;;14.40;3.50;;;;;;;5.16;100.00;102762.22;4979893;28;20045;-77
2022/05/09 04:55:58;;;;;;;18.60;4.10;;;;;;;5.28;100.00;102745.25;4964671;28;20042;-76
2022/05/09 04:58:24;;;;;;;12.45;3.47;;;;;;;5.63;100.00;102762.03;4978898;28;20023;-77
2022/05/09 05:00:50;;;;;;;16.83;3.65;;;;;;;5.67;100.00;102757.53;4964575;28;20030;-77
2022/05/09 05:03:19;;;;;;;13.57;3.92;;;;;;;5.79;100.00;102754.38;4970670;28;20034;-78
2022/05/09 05:05:48;;;;;;;15.48;3.53;;;;;;;5.98;100.00;102758.84;4969319;28;20042;-78
2022/05/09 05:08:15;;;;;;;10.98;3.08;;;;;;;6.17;100.00;102769.28;4968612;28;20034;-78
2022/05/09 05:10:42;;;;;;;13.90;3.33;;;;;;;6.23;100.00;102764.66;4980236;28;20504;-78
2022/05/09 05:13:08;;;;;;;14.32;3.17;;;;;;;6.36;100.00;102764.94;4978486;28;20149;-76
2022/05/09 05:15:34;;;;;;;18.13;3.58;;;;;;;6.73;100.00;102767.63;4954314;28;20323;-78
2022/05/09 05:18:00;;;;;;;12.20;2.90;;;;;;;6.94;98.17;102781.41;4967467;28;20101;-77
2022/05/09 05:20:26;;;;;;;14.30;3.25;;;;;;;7.21;96.42;102774.88;4969973;28;20042;-76
2022/05/09 05:22:55;;;;;;;10.30;2.95;;;;;;;7.37;94.48;102780.19;4955810;28;20038;-81
2022/05/09 05:25:29;;;;;;;11.75;3.10;;;;;;;7.51;93.95;102766.44;4982483;28;20045;-78
2022/05/09 05:27:55;;;;;;;12.48;2.72;;;;;;;7.62;92.47;102765.06;4960318;28;20527;-78
2022/05/09 05:30:21;;;;;;;12.18;2.90;;;;;;;7.71;91.43;102764.59;4972888;28;20054;-79
2022/05/09 05:32:48;;;;;;;16.05;2.53;;;;;;;7.92;92.53;102781.78;4988640;28;20030;-77
2022/05/09 05:35:18;;;;;;;8.50;2.78;;;;;;;7.89;94.00;102775.84;4912545;28;1242153;-79
2022/05/09 05:37:43;;;;;;;17.10;3.25;;;;;;;8.05;92.54;102779.38;4973498;28;20407;-80
2022/05/09 05:40:10;;;;;;;11.40;2.83;;;;;;;8.23;90.84;102781.94;4984755;28;20041;-78
2022/05/09 05:42:39;;;;;;;8.82;2.78;;;;;;;8.31;90.37;102782.38;4977737;28;20105;-77
2022/05/09 05:45:05;;;;;;;12.77;2.78;;;;;;;8.46;89.51;102770.28;4984166;28;20194;-78
2022/05/09 05:47:31;;;;;;;21.42;3.50;;;;;;;8.62;89.38;102773.75;4993709;28;20046;-78
2022/05/09 05:49:57;;;;;;;11.25;3.03;;;;;;;8.76;88.35;102766.00;4974034;28;20034;-77
2022/05/09 05:52:24;;;;;;;13.77;2.83;;;;;;;8.88;87.78;102767.06;4980805;28;20122;-78
2022/05/09 05:54:50;;;;;;;13.57;2.75;;;;;;;9.03;86.80;102773.22;4979497;28;20437;-80
2022/05/09 05:57:30;;;;;;;15.25;2.70;;;;;;;9.14;85.87;102770.00;4977691;28;20034;-79
2022/05/09 06:00:01;;;;;;;10.65;2.10;;;;;;;9.29;85.11;102778.75;4989040;28;20038;-79
2022/05/09 06:02:27;;;;;;;13.75;2.45;;;;;;;9.38;86.37;102770.38;4974591;28;20041;-79
2022/05/09 06:04:53;;;;;;;12.65;2.63;;;;;;;9.54;85.54;102779.00;4989560;28;20046;-77
2022/05/09 06:07:20;;;;;;;11.55;2.58;;;;;;;9.68;84.38;102777.34;4982354;28;20061;-78
2022/05/09 06:09:46;;;;;;;13.05;2.95;;;;;;;9.87;83.13;102777.09;4969561;28;20077;-76
2022/05/09 06:12:14;;;;;;;19.83;3.00;;;;;;;9.94;83.80;102779.28;4985114;28;20046;-77
2022/05/09 06:14:40;;;;;;;16.83;2.92;;;;;;;10.02;83.27;102776.19;4970893;28;20479;-80
2022/05/09 06:17:07;;;;;;;11.48;2.55;;;;;;;10.16;84.06;102771.88;4968795;28;20049;-77
2022/05/09 06:19:33;;;;;;;14.88;2.67;;;;;;;10.26;82.98;102772.97;4969707;28;20033;-78
2022/05/09 06:22:00;;;;;;;9.68;2.33;;;;;;;10.38;84.18;102782.75;4986694;28;20133;-78
2022/05/09 06:24:27;;;;;;;9.07;2.15;;;;;;;10.38;84.85;102782.75;4971586;28;20042;-78
2022/05/09 06:26:53;;;;;;;12.07;2.60;;;;;;;10.40;83.20;102787.91;4971099;28;20063;-81
2022/05/09 06:29:19;;;;;;;12.82;2.45;;;;;;;10.54;83.10;102782.63;4972702;28;20030;-81
2022/05/09 06:31:45;;;;;;;12.23;2.78;;;;;;;10.55;81.80;102784.34;4969027;28;20797;-78
2022/05/09 06:34:13;;;;;;;9.70;2.28;;;;;;;10.62;82.47;102790.84;4984419;28;20030;-79
2022/05/09 06:36:41;;;;;;;9.90;2.75;;;;;;;10.66;81.98;102789.75;4975807;28;20476;-80
2022/05/09 06:39:09;;;;;;;18.55;3.38;;;;;;;10.65;81.90;102785.41;4973286;28;20038;-81
2022/05/09 06:41:35;;;;;;;12.95;2.53;;;;;;;10.74;83.19;102784.00;4976973;28;20112;-79
2022/05/09 06:44:01;;;;;;;15.45;2.70;;;;;;;10.89;81.52;102788.28;4976135;28;20047;-79
2022/05/09 06:46:26;;;;;;;12.68;2.90;;;;;;;10.96;80.86;102782.63;4989339;28;20026;-78
2022/05/09 06:48:52;;;;;;;12.43;3.10;;;;;;;11.05;80.76;102785.47;4974265;28;20034;-79
2022/05/09 06:51:20;;;;;;;18.95;3.17;;;;;;;11.13;80.85;102779.72;4988469;28;20069;-78
2022/05/09 06:53:45;;;;;;;14.52;2.75;;;;;;;11.28;82.04;102786.63;4988912;28;20038;-78
2022/05/09 06:56:12;;;;;;;13.10;2.85;;;;;;;11.45;80.68;102784.66;4990024;28;20069;-78
2022/05/09 06:58:38;;;;;;;17.23;2.80;;;;;;;11.51;79.54;102773.75;4986347;28;20062;-78
2022/05/09 07:01:18;;;;;;;11.27;2.58;;;;;;;11.57;78.57;102781.22;4970944;28;20502;-80
2022/05/09 07:03:45;;;;;;;10.15;2.50;;;;;;;11.74;80.40;102777.44;4990481;28;20038;-78
2022/05/09 07:06:10;;;;;;;15.70;3.30;;;;;;;11.92;80.46;102774.53;4961350;28;20125;-79
2022/05/09 07:08:37;;;;;;;13.20;3.03;;;;;;;12.07;78.09;102776.94;4951948;28;20576;-77
2022/05/09 07:11:04;;;;;;;12.20;3.03;;;;;;;12.03;77.40;102782.50;4972925;28;20063;-78
2022/05/09 07:13:30;;;;;;;18.05;2.80;;;;;;;12.00;78.90;102780.94;4970482;28;20030;-81
2022/05/09 07:15:57;;;;;;;15.85;2.85;;;;;;;12.02;77.81;102775.59;4979686;28;20038;-79
2022/05/09 07:18:28;;;;;;;14.60;2.80;;;;;;;12.16;77.37;102772.81;4989871;28;20118;-78
2022/05/09 07:20:54;;;;;;;14.43;2.75;;;;;;;12.25;77.29;102779.25;4988224;28;20574;-81
2022/05/09 07:23:19;;;;;;;12.00;2.60;;;;;;;12.50;77.45;102775.69;4971939;28;20034;-81
2022/05/09 07:25:45;;;;;;;11.63;2.40;;;;;;;12.54;75.17;102764.00;4978571;28;20661;-79
2022/05/09 07:28:12;;;;;;;12.73;2.67;;;;;;;12.77;74.87;102769.41;4967747;28;20496;-78
2022/05/09 07:30:38;;;;;;;18.38;2.58;;;;;;;12.93;74.98;102774.41;4982747;28;20390;-76
2022/05/09 07:33:04;;;;;;;9.88;2.60;;;;;;;13.10;73.24;102763.44;4988571;28;20046;-78
2022/05/09 07:35:32;;;;;;;12.85;2.42;;;;;;;13.16;72.95;102777.97;4976272;28;20039;-77
2022/05/09 07:37:58;;;;;;;18.23;2.85;;;;;;;13.14;73.24;102775.44;4973615;28;20094;-80
2022/05/09 07:40:23;;;;;;;13.90;2.85;;;;;;;13.07;73.61;102766.31;4969480;28;20467;-78
2022/05/09 07:42:49;;;;;;;17.55;2.72;;;;;;;13.15;73.53;102778.94;4967180;28;20034;-79
2022/05/09 07:45:18;;;;;;;13.63;2.80;;;;;;;13.13;74.08;102776.41;4967358;28;20068;-79
2022/05/09 07:47:43;;;;;;;19.17;2.88;;;;;;;13.15;73.04;102781.56;4957702;28;20043;-80
2022/05/09 07:50:12;;;;;;;9.25;2.45;;;;;;;13.11;73.58;102780.09;4961171;28;20487;-78
2022/05/09 07:52:38;;;;;;;12.18;2.47;;;;;;;13.27;70.93;102779.81;4956917;28;20042;-80
2022/05/09 07:55:05;;;;;;;10.13;2.40;;;;;;;13.51;71.24;102779.81;4978978;28;20046;-79
2022/05/09 07:57:31;;;;;;;13.90;2.83;;;;;;;13.61;69.16;102772.88;4951482;28;20042;-78
2022/05/09 07:59:58;;;;;;;14.68;2.63;;;;;;;13.72;69.28;102769.41;4986368;28;20034;-76
2022/05/09 08:02:24;;;;;;;14.27;2.42;;;;;;;13.89;69.54;102768.94;4964863;28;20034;-78
2022/05/09 08:04:49;;;;;;;14.90;2.58;;;;;;;13.79;64.96;102766.19;4963877;28;20038;-78
2022/05/09 08:07:16;;;;;;;11.27;2.50;;;;;;;13.85;65.71;102767.50;4971136;28;20042;-78
2022/05/09 08:09:42;;;;;;;9.98;2.35;;;;;;;13.98;66.54;102770.03;4986164;28;20045;-78
2022/05/09 08:12:08;;;;;;;10.88;2.60;;;;;;;13.90;67.98;102757.44;4980922;28;20578;-79
2022/05/09 08:14:34;;;;;;;10.63;2.65;;;;;;;13.96;69.12;102764.03;4972906;28;20057;-78
2022/05/09 08:17:03;;;;;;;13.80;3.08;;;;;;;14.20;69.68;102753.34;4990179;28;20038;-79
2022/05/09 08:19:31;;;;;;;22.25;2.85;;;;;;;14.36;67.23;102759.09;4963332;28;20085;-78
2022/05/09 08:21:57;;;;;;;13.60;2.53;;;;;;;14.27;61.29;102757.19;4956255;28;20041;-77
2022/05/09 08:24:24;;;;;;;8.77;1.98;;;;;;;14.41;61.02;102746.38;4987405;28;20118;-78
2022/05/09 08:26:51;;;;;;;10.00;2.30;;;;;;;14.63;64.41;102749.94;4977228;28;20045;-78
2022/05/09 08:29:16;;;;;;;10.70;1.90;;;;;;;14.85;63.98;102748.22;4980902;28;20050;-79
2022/05/09 08:31:42;;;;;;;10.57;2.30;;;;;;;15.03;62.13;102756.41;4986754;28;20384;-83
2022/05/09 08:34:08;;;;;;;9.48;2.15;;;;;;;15.10;58.67;102749.66;4993464;28;20447;-77
2022/05/09 08:36:46;;;;;;;10.88;2.20;;;;;;;15.07;58.20;102752.53;4987252;28;20037;-77
2022/05/09 08:39:13;;;;;;;9.68;2.08;;;;;;;15.01;59.15;102753.06;4973136;28;20035;-79
2022/05/09 08:42:06;;;;;;;7.57;2.20;;;;;;;15.11;59.56;102751.34;4970107;28;20058;-77
2022/05/09 08:44:51;;;;;;;;;;;;;;;15.32;58.91;102749.53;4967116;28;20124;-77
2022/05/09 08:47:27;;;;;;;7.15;2.28;;;;;;;15.21;59.56;102754.88;4971196;28;19940;-78
2022/05/09 08:50:23;;;;;;;10.55;2.35;;;;;;;15.25;59.63;102745.72;4997337;28;20046;-78
2022/05/09 08:53:04;;;;;;;8.55;2.40;;;;;;;15.46;58.76;102745.72;4940885;28;20681;-78
2022/05/09 08:55:36;;;;;;;11.25;2.97;;;;;;;15.61;59.65;102743.59;4958738;28;20106;-76
2022/05/09 08:58:05;;;;;;;11.55;2.25;;;;;;;15.64;60.24;102745.97;4967258;28;20027;-77
2022/05/09 09:00:31;;;;;;;13.32;2.13;;;;;;;15.72;58.77;102738.22;4988062;28;20037;-81
2022/05/09 09:03:25;;;;;;;13.43;2.30;;;;;;;15.61;57.22;102740.94;4970549;28;20088;-81
2022/05/09 09:05:54;;;;;;;11.85;2.42;;;;;;;15.66;57.87;102740.56;4986738;28;20034;-82
2022/05/09 09:08:38;;;;;;;10.85;2.15;;;;;;;15.94;60.59;102737.25;4981422;28;20030;-77
2022/05/09 09:11:23;;;;;;;12.15;2.30;;;;;;;16.38;56.61;102742.25;4971012;28;20034;-81
2022/05/09 09:14:16;;;;;;;9.60;2.08;;;;;;;16.21;55.68;102730.50;4981181;28;20031;-77
2022/05/09 09:16:48;;;;;;;11.77;2.63;;;;;;;16.13;56.96;102727.69;4981899;28;20252;-78
2022/05/09 09:19:27;;;;;;;7.65;1.77;;;;;;;16.31;55.43;102734.03;4968167;28;20045;-77
2022/05/09 09:22:05;;;;;;;9.95;2.30;;;;;;;16.46;57.73;102729.19;4971196;28;20110;-76
2022/05/09 09:24:46;;;;;;;10.25;2.28;;;;;;;16.76;54.99;102724.72;4984102;28;20042;-78
2022/05/09 09:27:14;;;;;;;9.45;2.40;;;;;;;16.86;56.62;102730.09;4972210;28;20061;-78
2022/05/09 09:29:51;;;;;;;7.18;1.95;;;;;;;16.79;54.55;102726.28;4976826;28;20031;-77
2022/05/09 09:32:20;;;;;;;10.73;2.33;;;;;;;16.72;54.17;102725.97;4983077;28;20100;-78
2022/05/09 09:35:08;;;;;;;7.35;1.85;;;;;;;16.74;55.43;102726.69;4975231;28;20035;-80
2022/05/09 09:37:58;;;;;;;9.82;2.28;;;;;;;16.87;55.33;102716.66;4990087;28;20034;-78
2022/05/09 09:40:24;;;;;;;9.57;2.28;;;;;;;17.04;54.56;102709.81;4981962;28;20035;-77
2022/05/09 09:42:54;;;;;;;6.75;1.90;;;;;;;17.21;53.20;102708.25;4984325;28;20097;-79
2022/05/09 09:45:33;;;;;;;10.50;2.40;;;;;;;17.46;53.37;102703.31;4972208;28;20050;-79
2022/05/09 09:48:13;;;;;;;9.05;2.03;;;;;;;17.56;53.71;102717.41;4979585;28;20163;-79
2022/05/09 09:50:59;;;;;;;12.18;2.60;;;;;;;17.52;51.75;102706.22;4981100;28;20047;-80
2022/05/09 09:53:51;;;;;;;7.35;1.90;;;;;;;17.69;51.11;102709.13;4962011;28;20039;-77
2022/05/09 09:56:20;;;;;;;11.45;2.10;;;;;;;17.82;51.78;102708.75;4975152;28;20060;-77
2022/05/09 09:58:45;;;;;;;8.93;2.10;;;;;;;17.92;48.95;102716.75;4970523;28;20456;-80
2022/05/09 10:01:23;;;;;;;12.07;2.55;;;;;;;17.92;49.39;102714.09;4968560;28;20049;-80
2022/05/09 10:04:10;;;;;;;11.52;2.47;;;;;;;18.02;46.58;102702.41;4969292;28;20052;-77
2022/05/09 10:06:56;;;;;;;10.07;2.00;;;;;;;17.96;46.34;102700.34;4981318;28;20543;-77
2022/05/09 10:09:22;;;;;;;7.15;2.13;;;;;;;18.08;46.70;102695.66;4911360;28;20069;-79
2022/05/09 10:11:48;;;;;;;9.25;2.20;;;;;;;18.11;45.64;102694.56;4983096;28;20391;-79
2022/05/09 10:14:31;;;;;;;9.25;2.30;;;;;;;18.32;45.67;102694.28;4989706;28;20042;-78
2022/05/09 10:17:20;;;;;;;8.85;2.30;;;;;;;18.24;46.13;102684.41;4973286;28;20173;-79
2022/05/09 10:19:47;;;;;;;11.60;2.35;;;;;;;18.07;45.76;102684.22;4974417;28;20125;-78
2022/05/09 10:25:09;;;;;;;4.80;1.80;;;;;;;18.37;46.71;102674.25;4979568;28;20066;-78
2022/05/09 10:27:38;;;;;;;7.25;2.20;;;;;;;18.58;47.87;102667.78;4985041;28;20046;-76
2022/05/09 10:30:29;;;;;;;7.75;1.88;;;;;;;18.67;46.15;102677.50;4981231;28;20042;-76
2022/05/09 10:33:32;;;;;;;9.57;2.53;;;;;;;18.75;44.36;102672.25;4983202;28;20034;-78
2022/05/09 10:36:16;;;;;;;9.35;2.00;;;;;;;18.82;45.42;102668.03;4977790;28;20537;-77
2022/05/09 10:39:06;;;;;;;9.85;2.95;;;;;;;18.93;45.50;102668.75;4982933;28;20035;-80
2022/05/09 10:41:41;;;;;;;8.02;2.30;;;;;;;19.08;44.99;102653.94;4967932;28;20034;-79
2022/05/09 10:44:11;;;;;;;8.38;1.92;;;;;;;19.18;44.39;102661.81;4968771;28;20097;-79
2022/05/09 10:46:46;;;;;;;14.07;2.33;;;;;;;19.25;44.46;102655.69;4978716;28;20042;-79
2022/05/09 10:49:24;;;;;;;8.88;2.15;;;;;;;19.37;44.59;102652.75;4972912;28;20045;-78
2022/05/09 10:52:15;;;;;;;9.05;2.17;;;;;;;19.39;44.30;102651.59;4989158;28;20403;-80
2022/05/09 10:55:05;;;;;;;9.32;2.20;;;;;;;19.45;45.54;102653.63;4975444;28;20404;-78
2022/05/09 10:57:45;;;;;;;8.65;2.30;;;;;;;19.66;44.72;102644.38;4985967;28;20100;-80
2022/05/09 11:00:24;;;;;;;10.63;2.38;;;;;;;19.86;43.79;102649.50;4989673;28;20121;-75
2022/05/09 11:03:14;;;;;;;13.02;2.45;;;;;;;20.12;42.34;102649.41;4976815;28;20079;-75
2022/05/09 11:06:04;;;;;;;8.35;2.03;;;;;;;20.09;40.16;102650.53;4984484;28;20042;-78
2022/05/09 11:08:44;;;;;;;7.65;1.90;;;;;;;19.82;40.54;102647.16;4985406;28;20049;-79
2022/05/09 11:11:12;;;;;;;9.23;2.40;;;;;;;19.92;40.92;102643.53;4978474;28;20042;-79
2022/05/09 11:14:23;;;;;;;7.65;2.08;;;;;;;19.97;39.36;102630.56;4985342;28;20041;-79
2022/05/09 11:16:54;;;;;;;8.40;2.10;;;;;;;20.17;39.62;102636.41;4973219;28;20046;-80
2022/05/09 11:19:35;;;;;;;9.00;2.50;;;;;;;20.32;40.47;102624.09;4986531;28;20617;-77
2022/05/09 11:22:27;;;;;;;11.73;2.28;;;;;;;20.60;36.58;102627.31;4982666;28;20291;-79
2022/05/09 11:25:25;;;;;;;9.13;1.88;;;;;;;20.72;36.03;102618.97;4972342;28;20038;-78
2022/05/09 11:28:10;;;;;;;6.55;1.83;;;;;;;20.94;35.12;102617.44;4955241;28;20041;-78
2022/05/09 11:30:44;;;;;;;7.22;1.67;;;;;;;21.05;34.18;102611.75;4990707;28;20129;-79
2022/05/09 11:33:56;;;;;;;13.55;2.10;;;;;;;21.06;35.07;102601.91;4973018;28;20077;-80
2022/05/09 11:36:45;;;;;;;5.97;1.73;;;;;;;20.93;32.47;102594.44;4995244;28;20034;-77
2022/05/09 11:39:50;;;;;;;6.72;1.92;;;;;;;20.48;34.01;102606.47;4964142;28;20046;-77
2022/05/09 11:45:42;;;;;;;6.03;1.70;;;;;;;20.87;35.80;102590.63;4991343;28;20521;-79
2022/05/09 11:48:32;;;;;;;8.40;1.70;;;;;;;21.07;34.16;102588.38;4961764;28;20041;-79
2022/05/09 11:51:22;;;;;;;7.80;2.03;;;;;;;21.33;35.44;102581.97;4967297;28;20527;-78
2022/05/09 11:53:54;;;;;;;10.80;1.90;;;;;;;21.48;32.35;102579.44;4968485;28;20030;-77
2022/05/09 11:56:20;;;;;;;;;;;;;;;21.49;34.77;102578.41;4980011;28;20030;-76
2022/05/09 11:58:46;;;;;;;9.85;2.00;;;;;;;21.68;32.44;102579.81;4984300;28;19935;-82
2022/05/09 12:01:12;;;;;;;8.20;2.00;;;;;;;21.64;32.65;102571.31;4966040;28;20404;-81
2022/05/09 12:03:40;;;;;;;8.02;1.77;;;;;;;21.47;32.12;102577.75;4965324;28;20185;-79
2022/05/09 12:06:28;;;;;;;7.97;1.67;;;;;;;21.42;32.00;102572.06;4987681;28;20037;-82
2022/05/09 12:08:58;;;;;;;6.13;1.67;;;;;;;21.56;32.64;102566.03;4978864;28;20089;-79
2022/05/09 12:11:29;;;;;;;7.60;2.10;;;;;;;21.62;31.66;102573.34;4981356;28;20042;-78
2022/05/09 12:13:58;;;;;;;7.70;2.30;;;;;;;21.79;33.42;102571.41;4979765;28;20082;-76